РУС

ENG

 
  Pireps - S7
 

Рейс SBI1020

  • Выполнял: Dmitry Schcurov
  • Аэропорт отправления: Pulkovo Airport (ULLI)
  • Аэропорт назначения: Domodedovo Airport (UUDD)
  • Тип ВС: A319-112 (VP-BHP)
  • Время полёта: 01.38
  • Дата полёта: 02.07.2020
  • Статус: Одобрен

Детали полёта
Gross Revenue:
(105 load / $ 0.00 per unit
$ 0.00
Fuel Cost:
(3319 fuel used @ 5.1 / unit)
$ 16, 926.90


Дополнительная информация о полёте:

Лог

Aircraft Used in flight is Feelthere A319 CFM Airbus House
10:55 Boarding
10:55 Navigation Lights ON at 90 AGL
10:55 Brakes are On
11:09 Beacon Lights ON at 90 AGL
11:11 Engine 1 Started
11:11 Engine 2 Started
11:12Flaps 2 Selected at 90ft and 2kts
11:13 Taxi Lights ON at 90 AGL
11:13 Brakes are Released
11:18 Taxi Lights OFF at 90 AGL
11:18 Landing Lights ON at 90 AGL
11:18 Strobe Lights ON at 90 AGL
11:19 Spoilers Armed
11:19 You Took off @ 146 Knots and Flaps at Position 2
Departure Weather
ULLI 020800Z 24005MPS 9999 SCT022CB BKN040 19/13 Q1004 R28R/090060 NOSIG
11:19 Landing Gear Up @ 154 Knots and 190 Feet
11:19 Spoilers Disarmed
11:21Flaps 1 Selected at 2630ft and 195kts
11:21Flaps Retracted at 2630ft and 195kts
11:23 Landing Lights OFF at 7570 AGL
11:39 TOC Reached
12:02 Paused
12:03 Unpaused
12:15 Landing Lights ON at 9630 AGL
12:18Flaps 1 Selected at 4050ft and 224kts
12:19 Landing Gear Down @ 221 Knots and 3930 Feet
12:19 Spoilers Armed
12:19Flaps 3 Selected at 3230ft and 192kts
12:19 Spoilers Disarmed
12:19 Spoilers Armed
12:20Flaps 4 Selected at 2860ft and 163kts
12:20Flaps 5 Selected at 2480ft and 136kts
12:25 You Landed @ 120 Knots and with -350 Vertical Speed
Arrival Weather
UUDD 020730Z 24004G09MPS 180V340 CAVOK 24/12 Q1012 R32L/CLRD60 NOSIG
12:25 Spoilers Disarmed
12:25 Spoilers Armed
12:25 Spoilers Disarmed
12:25 Landing Lights OFF at 600 AGL
12:25 Strobe Lights OFF at 600 AGL
12:26Flaps Retracted at 600ft and 8kts
12:26 Taxi Lights ON at 600 AGL
12:31 Taxi Lights OFF at 600 AGL
12:32 Brakes are On
12:32 Engine 2 Stoped
12:32 Engine 1 Stoped
12:32 Beacon Lights OFF at 600 AGL
Pirep logged with S7 Tracking 1.0.0.14



Общая оценка полета : 100%




Route Map



 
 
   
 
Новости

03.09.2020 - Полеты в MFS 2020

Спешим сообщить вам, что теперь наш S7 Pad поддерживается для полетов в новом симуляторе MFS 2020. В разделе Загрузки вы найдете FSUIPC7.rar
Инструкция для запуска прилагается!

   
 
Авторизация






Регистрация

Восстановить пароль?

Мы в соц. сетях

      



   
 





   
 


   
 


Яндекс.Метрика

www.va-s7.ru 2011-2020
Все права защищены.



Минуточку внимания!
Сайт va-s7.ru не является коммерческим проектом. Мы не имеем отношения к торговым маркам "S7" и "Globus" и их представителям.
Эмблемы на сайте являются собственностью соответствующих компаний.

аэронавигационная метеорологическая и любая другая информация с данного ресурса ни в коем случае не должна использоваться для реальных полетов